Meteo Giornale » Osservazioni meteo Messico » Mexico City-Licenci

ore: 01:45 - Osservazioni Meteo Mexico City-Licenci
Lat. 19° 26' N Lon. 99° 6' W Alt. 2238 metri s.l.m.

poco_nuvoloso America/Mexico_City

19 °C

Poco Nuvoloso

Temp. 24 Ore

12 °C

31 °C

Ovest

9.3 Km/h

Dew point 6 °C

Umidità 42 %

Visibilità  13 Km

Il sole sorge alle ore 06:30

Il sole tramonta alle ore 18:51

Data e Ora Cielo e Fenomeni T °C DP °C Um. % Pres. hPa Vis. km Vento km/h
Oggi h: 01:45 poco_nuvoloso Poco Nuvoloso 19 6 42 1025 13 O 9.3
Oggi h: 00:45 poco_nuvoloso Poco Nuvoloso 20 4 34 1025 13 N 11.1
Ieri h: 23:47 poco_nuvoloso Poco Nuvoloso 20 4 34 1025 13 NO 9.3
Ieri h: 22:45 nuvoloso Nuvoloso 21 3 30 1025 11 N/NE 24
Ieri h: 21:46 nuvoloso Nuvoloso 21 4 32 1025 11 N/NE 18.5
Ieri h: 21:20 nuvoloso Nuvoloso 21 5 35 1024 11 NE 18.5
Ieri h: 20:45 nuvoloso Nuvoloso 23 5 31 1024 13 E/NE 24
Ieri h: 20:30 nuvoloso Nuvoloso 23 4 28 1023 13 E 25.9
Ieri h: 19:46 nuvoloso Nuvoloso 25 -3 15 1022 10 N 5.5
Ieri h: 19:20 nuvoloso Nuvoloso 25 -3 15 1021 10 S 9.3
Ieri h: 18:46 sereno Sereno 26 -3 14 1020 10 S 18.5
Ieri h: 18:35 sereno Sereno 26 -3 14 1020 13 S 18.5
Ieri h: 17:46 sereno Sereno 28 -5 11 1020 13 S 20.3
Ieri h: 16:49 sereno Sereno 29 -11 6 1020 13 S 14.8
Ieri h: 15:44 sereno Sereno 30 -10 6 1020 13 S/SE 25.9
Ieri h: 14:54 sereno Sereno 31 -10 6 1020 11 S/SE 20.3
Ieri h: 14:31 sereno Sereno 31 -9 6 1020 11 E/SE 13
Ieri h: 13:44 sereno Sereno 29 0 15 1021 10 S 11.1
Ieri h: 13:15 poco_nuvoloso Poco Nuvoloso 29 -2 13 1022 10 S 9.3
Ieri h: 12:43 nuvoloso Nuvoloso 27 0 17 1022 10 S 7.4
Ieri h: 11:55 nuvoloso Nuvoloso 26 1 19 1024 10 N 5.5
Ieri h: 11:42 nuvoloso Nuvoloso 26 4 24 1024 10 E/NE 9.3
Ieri h: 10:44 nuvoloso Nuvoloso 24 5 29 1025 8 N 0
Ieri h: 10:43 nuvoloso Nuvoloso 24 5 29 1025 8 N 0
Ieri h: 09:47 sereno Sereno 22 6 35 1025 10 N 5.5
Ieri h: 09:13 sereno Sereno 21 7 40 1025 10 N 0
Ieri h: 08:45 sereno Sereno 19 7 45 1026 10 N 0
Ieri h: 08:23 sereno Sereno 18 7 48 1025 10 N 0
Ieri h: 07:47 sereno Sereno 16 5 47 1025 10 E/NE 7.4
Ieri h: 07:21 poco_nuvoloso Poco Nuvoloso 14 5 54 1025 10 E/NE 7.4
Ieri h: 06:45 poco_nuvoloso Poco Nuvoloso 12 3 54 1025 10 E/NE 9.3
Ieri h: 06:39 poco_nuvoloso Poco Nuvoloso 12 3 54 1025 10 E/NE 9.3
Ieri h: 05:49 sereno Sereno 14 7 62 1024 11 E/NE 7.4
Ieri h: 04:45 sereno Sereno 14 7 62 1024 13 E/NE 7.4
Ieri h: 04:42 sereno Sereno 15 7 58 1024 13 E/NE 7.4
Ieri h: 03:42 sereno Sereno 17 6 48 1024 13 N 5.5
Ieri h: 02:45 sereno Sereno 17 7 51 1024 13 S/SE 7.4